CheckWX is a tool to help pilots better visualize weather data.  It is not intended as a substitute for an official pre-flight weather briefing.

18:02:47 UTC

KFHR METAR
Friday Harbor Airport
Friday Harbor, Washington, USA
Current

10 mins ago

KFHR 241753Z AUTO 14004KT 10SM BKN050 12/03 A3038 RMK AO2 SLP286 T01220028 10128 20056 53004
Observed
Apr-24 @ 17:53 UTC
Wind
  • 140° at 4 KTS
Visibility
10 SM
Flight Rules
VFR
Cloud Levels
  • Broken at 5,000' AGL
Temperature
12°C / 54°F
Dewpoint
C / 37°F
Humidity
54%
Altimeter
30.38" Hg
Pressure
1028.82 hPa
Previous

1 hour ago

KFHR 241653Z AUTO 01005KT 10SM OVC050 11/02 A3037 RMK AO2 SLP283 T01060017
Observed
Apr-24 @ 16:53 UTC
Wind
  • 010° at 5 KTS
Visibility
10 SM
Flight Rules
VFR
Cloud Levels
  • Overcast at 5,000' AGL
Temperature
11°C / 52°F
Dewpoint
C / 36°F
Humidity
54%
Altimeter
30.37" Hg
Pressure
1028.42 hPa
Previous

2 hours ago

KFHR 241553Z AUTO 01006KT 10SM OVC047 11/01 A3037 RMK AO2 SLP284 T01060011
Observed
Apr-24 @ 15:53 UTC
Wind
  • 010° at 6 KTS
Visibility
10 SM
Flight Rules
VFR
Cloud Levels
  • Overcast at 4,700' AGL
Temperature
11°C / 52°F
Dewpoint
C / 34°F
Humidity
50%
Altimeter
30.37" Hg
Pressure
1028.42 hPa